Time;durP1;ratioP1;P1;durP2;ratioP2;P2;SDS_P1;SDS_P2;PMS_P1;PMS_P2;Temp;Humidity;BMP_temperature;BMP_pressure;BME280_temperature;BME280_humidity;BME280_pressure;Samples;Min_cycle;Max_cycle;Signal;HPM_P1;HPM_P2
2023/11/23 00:01:10;;;;;;;15.83;11.70;;;;;;;;;;4992623;28;20526;-85
2023/11/23 00:03:36;;;;;;;18.10;12.10;;;;;;;;;;4989724;28;20524;-86
2023/11/23 00:06:03;;;;;;;15.57;10.37;;;;;;;;;;4994365;28;20487;-84
2023/11/23 00:08:30;;;;;;;17.00;11.67;;;;;;;;;;4999530;28;20494;-86
2023/11/23 00:10:57;;;;;;;15.90;11.87;;;;;;;;;;4994372;28;20875;-87
2023/11/23 00:13:23;;;;;;;14.40;10.33;;;;;;;;;;4993765;28;20464;-84
2023/11/23 00:15:50;;;;;;;16.20;11.80;;;;;;;;;;4994554;28;20527;-85
2023/11/23 00:18:16;;;;;;;18.13;11.17;;;;;;;;;;4995518;28;20459;-87
2023/11/23 00:20:43;;;;;;;16.10;11.20;;;;;;;;;;4996811;28;20472;-82
2023/11/23 00:23:11;;;;;;;14.83;11.83;;;;;;;;;;4990332;28;20464;-87
2023/11/23 00:25:40;;;;;;;20.70;11.07;;;;;;;;;;4988115;28;20456;-86
2023/11/23 00:28:07;;;;;;;15.57;10.97;;;;;;;;;;4988062;28;20476;-86
2023/11/23 00:30:33;;;;;;;21.33;12.20;;;;;;;;;;4992154;28;20488;-87
2023/11/23 00:32:59;;;;;;;17.73;11.97;;;;;;;;;;4992285;28;20518;-86
2023/11/23 00:35:26;;;;;;;22.50;12.57;;;;;;;;;;4998310;28;20510;-84
2023/11/23 00:37:53;;;;;;;20.87;12.03;;;;;;;;;;4992517;28;20503;-85
2023/11/23 00:40:19;;;;;;;19.93;12.83;;;;;;;;;;4995310;28;20472;-85
2023/11/23 00:42:47;;;;;;;19.13;13.03;;;;;;;;;;4988304;28;20454;-85
2023/11/23 00:45:14;;;;;;;24.40;12.13;;;;;;;;;;4994528;28;20515;-85
2023/11/23 00:47:41;;;;;;;22.93;13.20;;;;;;;;;;4990541;28;20914;-86
2023/11/23 00:50:08;;;;;;;28.47;13.50;;;;;;;;;;4997953;28;20471;-86
2023/11/23 00:52:34;;;;;;;19.80;13.37;;;;;;;;;;4999829;28;20455;-84
2023/11/23 00:55:04;;;;;;;20.00;13.53;;;;;;;;;;4996061;28;21030;-88
2023/11/23 00:57:32;;;;;;;20.70;12.37;;;;;;;;;;4990503;28;20951;-86
2023/11/23 01:00:00;;;;;;;21.57;12.87;;;;;;;;;;4984895;28;20472;-85
2023/11/23 01:02:26;;;;;;;23.63;12.60;;;;;;;;;;4991387;28;20882;-85
2023/11/23 01:04:53;;;;;;;24.20;13.90;;;;;;;;;;4992336;28;20463;-85
2023/11/23 01:07:19;;;;;;;27.27;13.10;;;;;;;;;;4995486;28;20559;-85
2023/11/23 01:09:45;;;;;;;31.47;13.30;;;;;;;;;;4995544;28;20448;-86
2023/11/23 01:12:12;;;;;;;21.03;13.87;;;;;;;;;;4996192;28;20507;-85
2023/11/23 01:14:38;;;;;;;22.10;13.30;;;;;;;;;;4994402;28;20750;-86
2023/11/23 01:17:06;;;;;;;19.37;13.10;;;;;;;;;;4986514;28;20461;-85
2023/11/23 01:19:32;;;;;;;29.23;14.07;;;;;;;;;;4985977;28;21529;-87
2023/11/23 01:21:59;;;;;;;25.17;14.47;;;;;;;;;;4992293;28;20460;-86
2023/11/23 01:24:25;;;;;;;27.70;15.40;;;;;;;;;;4992898;28;20487;-86
2023/11/23 01:26:52;;;;;;;26.47;14.80;;;;;;;;;;4983862;28;20495;-86
2023/11/23 01:29:19;;;;;;;27.60;15.70;;;;;;;;;;4996282;28;20558;-85
2023/11/23 01:31:45;;;;;;;24.73;14.40;;;;;;;;;;4991929;28;20976;-86
2023/11/23 01:34:13;;;;;;;30.07;16.53;;;;;;;;;;4996761;28;20558;-86
2023/11/23 01:36:39;;;;;;;27.73;15.20;;;;;;;;;;4997234;28;20498;-86
2023/11/23 01:39:07;;;;;;;26.80;15.20;;;;;;;;;;5002062;28;20521;-85
2023/11/23 01:41:33;;;;;;;26.00;15.57;;;;;;;;;;4999682;28;20467;-85
2023/11/23 01:44:00;;;;;;;28.07;15.83;;;;;;;;;;4992187;28;20475;-86
2023/11/23 01:46:26;;;;;;;26.37;16.07;;;;;;;;;;4999505;28;20462;-86
2023/11/23 01:48:53;;;;;;;28.30;17.50;;;;;;;;;;4996850;28;20487;-85
2023/11/23 01:51:21;;;;;;;26.50;14.30;;;;;;;;;;4998015;28;20480;-87
2023/11/23 01:53:47;;;;;;;28.13;16.70;;;;;;;;;;4996316;28;20502;-85
2023/11/23 01:56:14;;;;;;;27.90;14.73;;;;;;;;;;4993315;28;20519;-86
2023/11/23 01:58:41;;;;;;;28.53;16.63;;;;;;;;;;4993787;28;20761;-85
2023/11/23 02:01:07;;;;;;;26.63;15.13;;;;;;;;;;4996712;28;20653;-85
2023/11/23 02:03:34;;;;;;;31.97;18.07;;;;;;;;;;4999563;28;20550;-84
2023/11/23 02:06:02;;;;;;;27.80;16.00;;;;;;;;;;5002687;28;20463;-84
2023/11/23 02:08:30;;;;;;;31.30;18.40;;;;;;;;;;5002617;28;20486;-83
2023/11/23 02:10:58;;;;;;;32.83;16.70;;;;;;;;;;4989762;28;20511;-83
2023/11/23 02:13:24;;;;;;;28.90;16.53;;;;;;;;;;4995127;28;20468;-82
2023/11/23 02:15:51;;;;;;;31.83;19.87;;;;;;;;;;4997814;28;20559;-84
2023/11/23 02:18:17;;;;;;;29.50;17.97;;;;;;;;;;4993994;28;20491;-83
2023/11/23 02:20:46;;;;;;;32.53;18.77;;;;;;;;;;5000461;28;20459;-84
2023/11/23 02:23:12;;;;;;;32.77;19.90;;;;;;;;;;5000077;28;20459;-85
2023/11/23 02:25:40;;;;;;;32.13;18.83;;;;;;;;;;5000099;28;20476;-84
2023/11/23 02:28:08;;;;;;;35.07;17.90;;;;;;;;;;5000746;28;20499;-84
2023/11/23 02:30:34;;;;;;;32.17;18.53;;;;;;;;;;5000742;28;20472;-84
2023/11/23 02:33:03;;;;;;;35.83;18.80;;;;;;;;;;4999378;28;20482;-83
2023/11/23 02:35:29;;;;;;;34.13;19.13;;;;;;;;;;5000845;28;20643;-82
2023/11/23 02:37:56;;;;;;;34.40;19.87;;;;;;;;;;4994204;28;20524;-82
2023/11/23 02:40:22;;;;;;;43.50;19.63;;;;;;;;;;4997993;28;20487;-84
2023/11/23 02:42:50;;;;;;;28.97;17.67;;;;;;;;;;4995669;28;20488;-84
2023/11/23 02:45:17;;;;;;;33.20;17.37;;;;;;;;;;4996868;28;20835;-85
2023/11/23 02:47:43;;;;;;;40.80;20.80;;;;;;;;;;5001376;28;20487;-85
2023/11/23 02:50:11;;;;;;;31.13;18.67;;;;;;;;;;4996567;28;20464;-85
2023/11/23 02:52:37;;;;;;;32.30;19.20;;;;;;;;;;4994588;28;20515;-85
2023/11/23 02:55:04;;;;;;;29.13;17.70;;;;;;;;;;4993375;28;20494;-86
2023/11/23 02:57:30;;;;;;;34.80;19.43;;;;;;;;;;4994224;28;20551;-84
2023/11/23 02:59:58;;;;;;;36.93;19.70;;;;;;;;;;4995766;28;20536;-84
2023/11/23 03:02:24;;;;;;;32.43;19.07;;;;;;;;;;5000710;28;20502;-84
2023/11/23 03:04:53;;;;;;;33.53;20.40;;;;;;;;;;4996958;28;20993;-85
2023/11/23 03:07:20;;;;;;;36.47;19.23;;;;;;;;;;4987722;28;20492;-84
2023/11/23 03:09:46;;;;;;;34.17;19.13;;;;;;;;;;4996726;28;20546;-84
2023/11/23 03:12:13;;;;;;;40.70;21.40;;;;;;;;;;4996357;28;20451;-83
2023/11/23 03:14:39;;;;;;;35.00;19.20;;;;;;;;;;4996336;28;20505;-86
2023/11/23 03:17:07;;;;;;;38.93;20.33;;;;;;;;;;4996116;28;20464;-85
2023/11/23 03:19:34;;;;;;;36.77;20.47;;;;;;;;;;4989798;28;20489;-86
2023/11/23 03:22:00;;;;;;;36.57;19.63;;;;;;;;;;4996706;28;20455;-86
2023/11/23 03:24:26;;;;;;;36.30;20.10;;;;;;;;;;4990672;28;20532;-86
2023/11/23 03:26:53;;;;;;;30.33;18.87;;;;;;;;;;5000937;28;20527;-84
2023/11/23 03:29:19;;;;;;;34.20;20.40;;;;;;;;;;4996834;28;20544;-86
2023/11/23 03:31:45;;;;;;;37.20;20.33;;;;;;;;;;5000401;28;20896;-85
2023/11/23 03:34:13;;;;;;;35.90;20.57;;;;;;;;;;4999188;28;20459;-85
2023/11/23 03:36:40;;;;;;;38.20;19.70;;;;;;;;;;4998877;28;20574;-85
2023/11/23 03:39:07;;;;;;;37.40;21.67;;;;;;;;;;4998239;28;20938;-84
2023/11/23 03:41:34;;;;;;;34.80;20.37;;;;;;;;;;4999420;28;20456;-84
2023/11/23 03:44:00;;;;;;;38.23;22.20;;;;;;;;;;4997539;28;21031;-86
2023/11/23 03:46:27;;;;;;;36.33;19.20;;;;;;;;;;4998035;28;20456;-86
2023/11/23 03:48:54;;;;;;;34.30;20.43;;;;;;;;;;4998659;28;20510;-85
2023/11/23 03:51:21;;;;;;;42.00;21.00;;;;;;;;;;5000692;28;20479;-85
2023/11/23 03:53:48;;;;;;;37.90;20.43;;;;;;;;;;5000034;28;20566;-85
2023/11/23 03:56:15;;;;;;;40.57;20.80;;;;;;;;;;4996381;28;20607;-85
2023/11/23 03:58:42;;;;;;;36.13;20.00;;;;;;;;;;5000710;28;20459;-84
2023/11/23 04:01:09;;;;;;;31.43;19.60;;;;;;;;;;4990143;28;20463;-85
2023/11/23 04:03:35;;;;;;;33.07;18.40;;;;;;;;;;4984163;28;20532;-85
2023/11/23 04:06:03;;;;;;;34.53;19.17;;;;;;;;;;4999617;28;20507;-84
2023/11/23 04:08:31;;;;;;;39.03;20.83;;;;;;;;;;4993603;28;20470;-84
2023/11/23 04:10:57;;;;;;;44.83;22.60;;;;;;;;;;4998809;28;20455;-85
2023/11/23 04:13:24;;;;;;;39.30;21.53;;;;;;;;;;4993607;28;20467;-83
2023/11/23 04:15:50;;;;;;;39.03;21.10;;;;;;;;;;4993824;28;20494;-85
2023/11/23 04:18:17;;;;;;;41.67;22.10;;;;;;;;;;4991580;28;20524;-83
2023/11/23 04:20:43;;;;;;;42.93;23.67;;;;;;;;;;4995167;28;20502;-85
2023/11/23 04:23:11;;;;;;;43.67;21.73;;;;;;;;;;4988960;28;20483;-84
2023/11/23 04:25:39;;;;;;;42.00;22.77;;;;;;;;;;5000804;28;20452;-83
2023/11/23 04:28:05;;;;;;;39.23;22.73;;;;;;;;;;4999492;28;20483;-84
2023/11/23 04:30:32;;;;;;;46.40;24.57;;;;;;;;;;4997048;28;20459;-84
2023/11/23 04:32:58;;;;;;;40.17;22.03;;;;;;;;;;4999670;28;20892;-83
2023/11/23 04:35:24;;;;;;;39.27;24.73;;;;;;;;;;4995914;28;20556;-85
2023/11/23 04:37:51;;;;;;;47.17;25.13;;;;;;;;;;5000580;28;20456;-84
2023/11/23 04:40:17;;;;;;;42.43;24.07;;;;;;;;;;4992426;28;20555;-85
2023/11/23 04:42:45;;;;;;;41.70;22.83;;;;;;;;;;4999326;28;21035;-84
2023/11/23 04:45:11;;;;;;;36.43;20.77;;;;;;;;;;4999106;28;20514;-85
2023/11/23 04:47:38;;;;;;;41.57;21.37;;;;;;;;;;4997868;28;20478;-86
2023/11/23 04:50:05;;;;;;;47.50;23.17;;;;;;;;;;4999256;28;20469;-87
2023/11/23 04:52:31;;;;;;;40.83;22.67;;;;;;;;;;4996645;28;20823;-83
2023/11/23 04:54:57;;;;;;;40.40;21.63;;;;;;;;;;4998573;28;20487;-85
2023/11/23 04:57:24;;;;;;;46.03;25.20;;;;;;;;;;4995817;28;20543;-83
2023/11/23 04:59:52;;;;;;;41.90;23.33;;;;;;;;;;4988579;28;20495;-83
2023/11/23 05:02:19;;;;;;;45.33;23.80;;;;;;;;;;4994970;28;21218;-85
2023/11/23 05:04:46;;;;;;;39.93;23.00;;;;;;;;;;4998971;28;20558;-83
2023/11/23 05:07:12;;;;;;;45.70;24.33;;;;;;;;;;4995201;28;20500;-84
2023/11/23 05:09:39;;;;;;;41.87;22.57;;;;;;;;;;5002580;28;20499;-84
2023/11/23 05:12:06;;;;;;;44.13;22.77;;;;;;;;;;5002566;28;21099;-84
2023/11/23 05:14:32;;;;;;;38.07;22.47;;;;;;;;;;5004690;28;20855;-85
2023/11/23 05:17:00;;;;;;;39.50;22.97;;;;;;;;;;4996697;28;20539;-83
2023/11/23 05:19:26;;;;;;;43.90;21.77;;;;;;;;;;5002845;28;20470;-85
2023/11/23 05:21:53;;;;;;;40.60;21.73;;;;;;;;;;4993788;28;20470;-84
2023/11/23 05:24:18;;;;;;;41.50;23.53;;;;;;;;;;4993078;28;20491;-85
2023/11/23 05:26:44;;;;;;;38.70;21.03;;;;;;;;;;4991520;28;20457;-84
2023/11/23 05:29:11;;;;;;;44.37;25.57;;;;;;;;;;4993443;28;20251;-82
2023/11/23 05:31:37;;;;;;;45.90;24.37;;;;;;;;;;4994390;28;20811;-82
2023/11/23 05:34:05;;;;;;;47.07;28.00;;;;;;;;;;4996181;28;20921;-81
2023/11/23 05:36:32;;;;;;;41.00;23.60;;;;;;;;;;4999601;28;20500;-82
2023/11/23 05:38:58;;;;;;;51.70;26.17;;;;;;;;;;4996128;28;20547;-80
2023/11/23 05:41:24;;;;;;;49.93;25.87;;;;;;;;;;4988189;28;20984;-80
2023/11/23 05:43:51;;;;;;;50.93;24.83;;;;;;;;;;4997412;28;20511;-80
2023/11/23 05:46:17;;;;;;;48.30;26.30;;;;;;;;;;4999483;28;20447;-79
2023/11/23 05:48:44;;;;;;;42.93;25.87;;;;;;;;;;4997224;28;20586;-79
2023/11/23 05:51:12;;;;;;;46.97;27.93;;;;;;;;;;4997846;28;21011;-80
2023/11/23 05:53:38;;;;;;;51.90;28.73;;;;;;;;;;4996485;28;20884;-80
2023/11/23 05:56:05;;;;;;;50.63;27.50;;;;;;;;;;5000393;28;20552;-79
2023/11/23 05:58:32;;;;;;;50.63;27.50;;;;;;;;;;4998699;28;20470;-80
2023/11/23 06:00:58;;;;;;;57.43;29.30;;;;;;;;;;4996477;28;20555;-81
2023/11/23 06:03:24;;;;;;;51.77;29.23;;;;;;;;;;4994328;28;20524;-80
2023/11/23 06:05:51;;;;;;;56.00;28.77;;;;;;;;;;4993074;28;20474;-81
2023/11/23 06:08:19;;;;;;;55.27;28.20;;;;;;;;;;4995815;28;21035;-76
2023/11/23 06:10:46;;;;;;;67.83;31.90;;;;;;;;;;4995373;28;20471;-82
2023/11/23 06:13:12;;;;;;;56.80;32.23;;;;;;;;;;4999801;28;20531;-80
2023/11/23 06:15:38;;;;;;;59.37;31.90;;;;;;;;;;4996947;28;20487;-81
2023/11/23 06:18:05;;;;;;;56.07;31.67;;;;;;;;;;4997085;28;20558;-78
2023/11/23 06:20:32;;;;;;;57.17;30.57;;;;;;;;;;4996758;28;20541;-80
2023/11/23 06:22:59;;;;;;;60.13;31.60;;;;;;;;;;4991965;28;20475;-80
2023/11/23 06:25:27;;;;;;;56.30;31.17;;;;;;;;;;4992803;28;20532;-80
2023/11/23 06:27:53;;;;;;;60.00;32.10;;;;;;;;;;4993505;28;20909;-80
2023/11/23 06:30:20;;;;;;;65.73;32.47;;;;;;;;;;4988841;28;20471;-80
2023/11/23 06:32:46;;;;;;;58.13;32.90;;;;;;;;;;4991138;28;20524;-80
2023/11/23 06:35:13;;;;;;;59.60;32.77;;;;;;;;;;4998592;28;20478;-81
2023/11/23 06:37:39;;;;;;;58.47;33.63;;;;;;;;;;4994189;28;20538;-83
2023/11/23 06:40:06;;;;;;;59.67;30.57;;;;;;;;;;4994089;28;21238;-84
2023/11/23 06:42:34;;;;;;;59.07;32.80;;;;;;;;;;4997855;28;20479;-82
2023/11/23 06:45:01;;;;;;;65.83;34.60;;;;;;;;;;4995060;28;20912;-83
2023/11/23 06:47:28;;;;;;;63.07;34.43;;;;;;;;;;5000967;28;20466;-83
2023/11/23 06:49:55;;;;;;;64.00;32.37;;;;;;;;;;5000958;28;20465;-85
2023/11/23 06:52:21;;;;;;;63.83;35.60;;;;;;;;;;4989622;28;20492;-85
2023/11/23 06:54:48;;;;;;;68.57;37.57;;;;;;;;;;5001058;28;20538;-86
2023/11/23 06:57:14;;;;;;;66.63;35.53;;;;;;;;;;5000846;28;20495;-86
2023/11/23 06:59:42;;;;;;;62.60;34.33;;;;;;;;;;4999964;28;20483;-85
2023/11/23 07:02:09;;;;;;;66.67;35.33;;;;;;;;;;4994200;28;20563;-87
2023/11/23 07:04:35;;;;;;;58.87;33.80;;;;;;;;;;5000548;28;20475;-86
2023/11/23 07:07:02;;;;;;;66.20;35.80;;;;;;;;;;4999483;28;20476;-86
2023/11/23 07:09:29;;;;;;;64.30;35.10;;;;;;;;;;4994687;28;20547;-80
2023/11/23 07:11:57;;;;;;;71.77;36.17;;;;;;;;;;4999297;28;20475;-80
2023/11/23 07:14:23;;;;;;;64.17;35.63;;;;;;;;;;4994547;28;20468;-80
2023/11/23 07:16:52;;;;;;;63.13;32.63;;;;;;;;;;4989787;28;21060;-80
2023/11/23 07:19:19;;;;;;;62.70;34.37;;;;;;;;;;4990246;28;20472;-79
2023/11/23 07:21:46;;;;;;;60.90;33.77;;;;;;;;;;4996043;28;20460;-79
2023/11/23 07:24:12;;;;;;;58.73;31.63;;;;;;;;;;4995676;28;20883;-80
2023/11/23 07:26:39;;;;;;;57.40;33.90;;;;;;;;;;4995307;28;21192;-80
2023/11/23 07:29:05;;;;;;;62.77;35.07;;;;;;;;;;5000169;28;20482;-78
2023/11/23 07:31:32;;;;;;;60.73;31.50;;;;;;;;;;4997287;28;20515;-80
2023/11/23 07:34:00;;;;;;;53.80;32.63;;;;;;;;;;4998996;28;20530;-79
2023/11/23 07:36:28;;;;;;;55.03;30.27;;;;;;;;;;5001828;28;20483;-81
2023/11/23 07:38:54;;;;;;;53.30;31.00;;;;;;;;;;4999198;28;20464;-80
2023/11/23 07:41:21;;;;;;;55.80;31.47;;;;;;;;;;4989088;28;20532;-82
2023/11/23 07:43:47;;;;;;;58.20;30.27;;;;;;;;;;4999110;28;20452;-80
2023/11/23 07:46:15;;;;;;;52.93;30.27;;;;;;;;;;4998068;28;20995;-80
2023/11/23 07:48:41;;;;;;;49.17;29.70;;;;;;;;;;4996893;28;20492;-79
2023/11/23 07:51:09;;;;;;;47.60;29.00;;;;;;;;;;4996804;28;20695;-81
2023/11/23 07:53:36;;;;;;;42.47;26.13;;;;;;;;;;5004615;28;20475;-80
2023/11/23 07:56:02;;;;;;;45.90;30.10;;;;;;;;;;5000067;28;20511;-81
2023/11/23 07:58:29;;;;;;;49.60;29.23;;;;;;;;;;4993455;28;20466;-81
2023/11/23 08:00:55;;;;;;;47.00;26.40;;;;;;;;;;4995147;28;20562;-80
2023/11/23 08:03:21;;;;;;;50.47;29.00;;;;;;;;;;4993593;28;20478;-81
2023/11/23 08:05:48;;;;;;;45.40;28.97;;;;;;;;;;4992329;28;20478;-80
2023/11/23 08:08:16;;;;;;;47.40;27.90;;;;;;;;;;4998005;28;20460;-82
2023/11/23 08:10:42;;;;;;;52.00;29.23;;;;;;;;;;4994061;28;20472;-80
2023/11/23 08:13:09;;;;;;;47.17;27.97;;;;;;;;;;4998388;28;21240;-79
2023/11/23 08:15:36;;;;;;;44.10;28.27;;;;;;;;;;4988203;28;20457;-80
2023/11/23 08:18:02;;;;;;;50.97;28.13;;;;;;;;;;4998955;28;20515;-81
2023/11/23 08:20:29;;;;;;;45.83;27.27;;;;;;;;;;4993464;28;20457;-81
2023/11/23 08:22:57;;;;;;;43.93;27.63;;;;;;;;;;4995440;28;20978;-79
2023/11/23 08:25:25;;;;;;;49.87;28.67;;;;;;;;;;4998466;28;20490;-80
2023/11/23 08:27:51;;;;;;;45.00;28.87;;;;;;;;;;4993650;28;20499;-78
2023/11/23 08:30:20;;;;;;;48.80;27.23;;;;;;;;;;4994438;28;20452;-80
2023/11/23 08:32:46;;;;;;;42.87;28.03;;;;;;;;;;5000419;28;20894;-79
2023/11/23 08:35:13;;;;;;;41.73;26.97;;;;;;;;;;4997345;28;20487;-81
2023/11/23 08:37:39;;;;;;;57.13;30.80;;;;;;;;;;4992926;28;20534;-80
2023/11/23 08:40:07;;;;;;;45.17;26.00;;;;;;;;;;4988097;28;20456;-81
2023/11/23 08:42:35;;;;;;;46.07;29.23;;;;;;;;;;4987120;28;20560;-79
2023/11/23 08:45:01;;;;;;;50.00;28.20;;;;;;;;;;5000351;28;20498;-80
2023/11/23 08:47:27;;;;;;;47.47;28.77;;;;;;;;;;5000516;28;20526;-79
2023/11/23 08:49:55;;;;;;;52.60;30.50;;;;;;;;;;4996796;28;20566;-80
2023/11/23 08:52:21;;;;;;;46.70;29.20;;;;;;;;;;5002836;28;20455;-78
2023/11/23 08:54:48;;;;;;;52.13;29.20;;;;;;;;;;5000990;28;20581;-80
2023/11/23 08:57:14;;;;;;;46.07;28.30;;;;;;;;;;5001292;28;20543;-80
2023/11/23 08:59:42;;;;;;;47.47;28.53;;;;;;;;;;5001975;28;20498;-81
2023/11/23 09:02:09;;;;;;;48.27;27.73;;;;;;;;;;4992851;28;21071;-81
2023/11/23 09:04:37;;;;;;;46.90;28.13;;;;;;;;;;4997594;28;20498;-82
2023/11/23 09:07:03;;;;;;;45.17;29.03;;;;;;;;;;5003381;28;20467;-81
2023/11/23 09:09:30;;;;;;;45.23;26.60;;;;;;;;;;5003192;28;20562;-83
2023/11/23 09:11:59;;;;;;;49.73;28.30;;;;;;;;;;5002774;28;20495;-79
2023/11/23 09:14:25;;;;;;;45.87;27.70;;;;;;;;;;4999674;28;20533;-82
2023/11/23 09:16:53;;;;;;;48.93;28.67;;;;;;;;;;5001826;28;20831;-80
2023/11/23 09:19:19;;;;;;;46.07;28.00;;;;;;;;;;5003547;28;20490;-82
2023/11/23 09:21:46;;;;;;;36.77;23.53;;;;;;;;;;5004806;28;21363;-80
2023/11/23 09:24:14;;;;;;;45.50;27.63;;;;;;;;;;5000062;28;20948;-82
2023/11/23 09:26:40;;;;;;;44.20;27.50;;;;;;;;;;5002858;28;20533;-80
2023/11/23 09:29:07;;;;;;;56.80;29.03;;;;;;;;;;4998239;28;20484;-83
2023/11/23 09:31:34;;;;;;;38.10;24.67;;;;;;;;;;4998748;28;20464;-81
2023/11/23 09:34:03;;;;;;;42.70;25.83;;;;;;;;;;4994053;28;20510;-83
2023/11/23 09:36:30;;;;;;;44.43;26.30;;;;;;;;;;5001542;28;20469;-79
2023/11/23 09:39:00;;;;;;;42.50;26.13;;;;;;;;;;4994858;28;20472;-82
2023/11/23 09:41:29;;;;;;;33.87;23.07;;;;;;;;;;5003517;28;21026;-81
2023/11/23 09:43:56;;;;;;;38.50;25.53;;;;;;;;;;5002781;28;20824;-82
2023/11/23 09:46:25;;;;;;;38.30;24.03;;;;;;;;;;5001231;28;20472;-80
2023/11/23 09:48:52;;;;;;;41.77;25.17;;;;;;;;;;4998169;28;20532;-79
2023/11/23 09:51:20;;;;;;;35.77;24.33;;;;;;;;;;4998224;28;20998;-80
2023/11/23 09:53:48;;;;;;;37.70;24.03;;;;;;;;;;5008040;28;20459;-80
2023/11/23 09:56:15;;;;;;;35.33;24.93;;;;;;;;;;4998293;28;20494;-82
2023/11/23 09:58:42;;;;;;;36.60;24.83;;;;;;;;;;4996508;28;20511;-81
2023/11/23 10:01:09;;;;;;;38.93;23.73;;;;;;;;;;4993266;28;20546;-81
2023/11/23 10:03:36;;;;;;;35.37;24.00;;;;;;;;;;5001009;28;20494;-81
2023/11/23 10:06:02;;;;;;;41.20;23.63;;;;;;;;;;5002051;28;20491;-80
2023/11/23 10:08:30;;;;;;;41.20;22.50;;;;;;;;;;4999526;28;20468;-81
2023/11/23 10:10:57;;;;;;;40.10;25.33;;;;;;;;;;4991745;28;20457;-82
2023/11/23 10:13:23;;;;;;;39.70;27.10;;;;;;;;;;4990730;28;20478;-81
2023/11/23 10:15:50;;;;;;;36.70;22.50;;;;;;;;;;4994795;28;20720;-80
2023/11/23 10:18:17;;;;;;;43.83;25.57;;;;;;;;;;4988868;28;20737;-80
2023/11/23 10:20:45;;;;;;;31.40;22.53;;;;;;;;;;4991388;28;20468;-80
2023/11/23 10:23:12;;;;;;;28.00;20.20;;;;;;;;;;5001089;28;20457;-80
2023/11/23 10:25:41;;;;;;;32.43;21.77;;;;;;;;;;5000922;28;20469;-81
2023/11/23 10:28:08;;;;;;;34.43;22.30;;;;;;;;;;4993165;28;20995;-81
2023/11/23 10:30:36;;;;;;;33.53;22.63;;;;;;;;;;5000017;28;20521;-80
2023/11/23 10:33:04;;;;;;;33.40;21.93;;;;;;;;;;4998974;28;20464;-80
2023/11/23 10:35:32;;;;;;;35.10;22.77;;;;;;;;;;4991286;28;20475;-80
2023/11/23 10:37:59;;;;;;;32.50;21.57;;;;;;;;;;4998040;28;20546;-84
2023/11/23 10:40:28;;;;;;;30.83;19.80;;;;;;;;;;5000016;28;20556;-80
2023/11/23 10:42:58;;;;;;;31.87;20.60;;;;;;;;;;5006008;28;20465;-81
2023/11/23 10:45:25;;;;;;;31.53;21.40;;;;;;;;;;5002077;28;20503;-82
2023/11/23 10:47:54;;;;;;;32.40;19.33;;;;;;;;;;4996905;28;20479;-81
2023/11/23 10:50:20;;;;;;;30.27;20.10;;;;;;;;;;4997413;28;20478;-81
2023/11/23 10:52:47;;;;;;;30.47;19.10;;;;;;;;;;5000775;28;20473;-82
2023/11/23 10:55:14;;;;;;;28.63;20.50;;;;;;;;;;4997921;28;20937;-81
2023/11/23 10:57:42;;;;;;;27.00;17.50;;;;;;;;;;5008031;28;20488;-83
2023/11/23 11:00:16;;;;;;;27.13;20.07;;;;;;;;;;4993288;28;20492;-82
2023/11/23 11:02:43;;;;;;;29.97;19.67;;;;;;;;;;5000756;28;20489;-80
2023/11/23 11:05:20;;;;;;;26.90;18.17;;;;;;;;;;4996216;28;20491;-81
2023/11/23 11:07:53;;;;;;;31.43;17.90;;;;;;;;;;4998143;28;20525;-81
2023/11/23 11:10:19;;;;;;;25.43;17.80;;;;;;;;;;4990613;28;20460;-82
2023/11/23 11:12:47;;;;;;;22.33;16.53;;;;;;;;;;4997289;28;20530;-82
2023/11/23 11:15:18;;;;;;;24.10;16.13;;;;;;;;;;4998731;28;20490;-79
2023/11/23 11:17:46;;;;;;;29.40;16.30;;;;;;;;;;4997876;28;20561;-82
2023/11/23 11:20:22;;;;;;;22.40;17.10;;;;;;;;;;4996296;28;21216;-80
2023/11/23 11:22:55;;;;;;;23.17;17.10;;;;;;;;;;5001673;28;20449;-80
2023/11/23 11:25:22;;;;;;;22.20;17.10;;;;;;;;;;5007209;28;20455;-80
2023/11/23 11:27:50;;;;;;;22.17;16.10;;;;;;;;;;5003055;28;20525;-80
2023/11/23 11:30:24;;;;;;;20.37;15.13;;;;;;;;;;4998836;28;20459;-83
2023/11/23 11:32:52;;;;;;;23.43;15.90;;;;;;;;;;4993048;28;20471;-80
2023/11/23 11:35:20;;;;;;;19.57;15.93;;;;;;;;;;4997166;28;20526;-80
2023/11/23 11:37:47;;;;;;;22.80;16.23;;;;;;;;;;5003130;28;20491;-80
2023/11/23 11:40:14;;;;;;;19.27;15.10;;;;;;;;;;4995664;28;20459;-81
2023/11/23 11:42:40;;;;;;;21.70;15.63;;;;;;;;;;4997871;28;20831;-84
2023/11/23 11:45:09;;;;;;;21.03;13.10;;;;;;;;;;4999733;28;21119;-81
2023/11/23 11:47:40;;;;;;;26.60;15.97;;;;;;;;;;5000104;28;20464;-81
2023/11/23 11:50:08;;;;;;;21.50;14.53;;;;;;;;;;4998520;28;20551;-82
2023/11/23 11:52:37;;;;;;;19.83;13.80;;;;;;;;;;4998676;28;20451;-80
2023/11/23 11:55:05;;;;;;;22.00;14.37;;;;;;;;;;4998349;28;20565;-81
2023/11/23 11:57:39;;;;;;;19.60;13.30;;;;;;;;;;4995747;28;20494;-81
2023/11/23 12:00:07;;;;;;;19.27;13.90;;;;;;;;;;4997879;28;20460;-82
2023/11/23 12:02:33;;;;;;;17.10;13.67;;;;;;;;;;4998438;28;20464;-85
2023/11/23 12:05:01;;;;;;;21.57;17.10;;;;;;;;;;4991875;28;20526;-81
2023/11/23 12:07:28;;;;;;;17.60;12.70;;;;;;;;;;4988447;28;20486;-83
2023/11/23 12:09:55;;;;;;;18.43;13.00;;;;;;;;;;4992353;28;20483;-82
2023/11/23 12:12:21;;;;;;;15.80;12.90;;;;;;;;;;4989846;28;20494;-82
2023/11/23 12:14:48;;;;;;;17.53;12.17;;;;;;;;;;4987038;28;20492;-82
2023/11/23 12:17:15;;;;;;;18.67;12.77;;;;;;;;;;4990389;28;20462;-81
2023/11/23 12:19:51;;;;;;;21.13;12.97;;;;;;;;;;4997365;28;20490;-85
2023/11/23 12:22:22;;;;;;;19.50;11.13;;;;;;;;;;4995816;28;20467;-81
2023/11/23 12:24:49;;;;;;;17.60;11.00;;;;;;;;;;4994111;28;20460;-84
2023/11/23 12:27:15;;;;;;;17.50;12.60;;;;;;;;;;4991596;28;20488;-80
2023/11/23 12:29:43;;;;;;;20.87;12.50;;;;;;;;;;4999942;28;20453;-80
2023/11/23 12:32:10;;;;;;;19.63;12.40;;;;;;;;;;4997250;28;20518;-82
2023/11/23 12:34:36;;;;;;;19.50;12.80;;;;;;;;;;4995020;28;20583;-80
2023/11/23 12:37:03;;;;;;;19.37;11.60;;;;;;;;;;5000448;28;20578;-82
2023/11/23 12:39:31;;;;;;;18.47;12.10;;;;;;;;;;4998534;28;20486;-87
2023/11/23 12:41:58;;;;;;;19.07;11.80;;;;;;;;;;5010641;28;20497;-81
2023/11/23 12:44:24;;;;;;;26.53;13.17;;;;;;;;;;5010157;28;20523;-81
2023/11/23 12:46:51;;;;;;;15.33;12.13;;;;;;;;;;4996189;28;20503;-81
2023/11/23 12:49:19;;;;;;;18.97;12.07;;;;;;;;;;4998045;28;20566;-81
2023/11/23 12:51:46;;;;;;;19.83;12.10;;;;;;;;;;4996379;28;21232;-79
2023/11/23 12:54:14;;;;;;;15.20;11.37;;;;;;;;;;4998233;28;20538;-82
2023/11/23 12:56:42;;;;;;;21.10;12.20;;;;;;;;;;4996699;28;20541;-82
2023/11/23 12:59:08;;;;;;;17.33;12.57;;;;;;;;;;4995728;28;20569;-81
2023/11/23 13:01:38;;;;;;;22.50;11.37;;;;;;;;;;5003273;28;20463;-81
2023/11/23 13:04:05;;;;;;;15.20;11.83;;;;;;;;;;4997379;28;20472;-83
2023/11/23 13:06:32;;;;;;;16.13;12.50;;;;;;;;;;4994856;28;20483;-82
2023/11/23 13:08:58;;;;;;;17.00;14.37;;;;;;;;;;4991948;28;20503;-81
2023/11/23 13:11:25;;;;;;;18.07;13.10;;;;;;;;;;4994925;28;20532;-82
2023/11/23 13:13:52;;;;;;;16.40;12.60;;;;;;;;;;4987754;28;21230;-84
2023/11/23 13:16:23;;;;;;;20.27;13.50;;;;;;;;;;4983260;28;20488;-84
2023/11/23 13:18:49;;;;;;;19.00;12.63;;;;;;;;;;4988995;28;20522;-81
2023/11/23 13:21:17;;;;;;;19.73;12.20;;;;;;;;;;4993378;28;20463;-81
2023/11/23 13:23:44;;;;;;;17.37;12.13;;;;;;;;;;4999617;28;20462;-81
2023/11/23 13:26:11;;;;;;;20.17;12.60;;;;;;;;;;4996681;28;20474;-80
2023/11/23 13:28:38;;;;;;;26.67;13.97;;;;;;;;;;4995261;28;21135;-83
2023/11/23 13:31:06;;;;;;;14.90;11.30;;;;;;;;;;4995961;28;20460;-82
2023/11/23 13:33:34;;;;;;;16.63;12.67;;;;;;;;;;4995256;28;20468;-80
2023/11/23 13:36:03;;;;;;;16.40;10.60;;;;;;;;;;4996509;28;20464;-80
2023/11/23 13:38:29;;;;;;;17.93;11.70;;;;;;;;;;4998761;28;20487;-82
2023/11/23 13:40:58;;;;;;;17.53;12.97;;;;;;;;;;4985693;28;20464;-80
2023/11/23 13:43:25;;;;;;;16.47;13.37;;;;;;;;;;4996815;28;20459;-81
2023/11/23 13:45:51;;;;;;;17.30;12.87;;;;;;;;;;4990805;28;20463;-79
2023/11/23 13:48:19;;;;;;;18.10;12.63;;;;;;;;;;4992115;28;20583;-79
2023/11/23 13:50:48;;;;;;;22.27;13.63;;;;;;;;;;4993875;28;20455;-80
2023/11/23 13:53:14;;;;;;;19.83;13.10;;;;;;;;;;5002417;28;20474;-81
2023/11/23 13:55:41;;;;;;;18.43;13.83;;;;;;;;;;4998835;28;20555;-82
2023/11/23 13:58:07;;;;;;;16.53;12.77;;;;;;;;;;4999807;28;20578;-81
2023/11/23 14:00:34;;;;;;;15.73;11.90;;;;;;;;;;4990371;28;20496;-80
2023/11/23 14:03:00;;;;;;;16.83;12.87;;;;;;;;;;4999901;28;20491;-81
2023/11/23 14:05:28;;;;;;;25.97;14.10;;;;;;;;;;4995957;28;20495;-86
2023/11/23 14:07:55;;;;;;;20.40;12.97;;;;;;;;;;4992630;28;20460;-86
2023/11/23 14:10:22;;;;;;;17.67;10.40;;;;;;;;;;4993118;28;20459;-87
2023/11/23 14:12:48;;;;;;;15.63;12.50;;;;;;;;;;4988095;28;20459;-86
2023/11/23 14:15:19;;;;;;;15.20;13.27;;;;;;;;;;4996760;28;20507;-86